Flight Track Log - Related Links

Times and Time Zones

All times are in EDT time to prevent confusion due to time zone crossing. See the N983CA flight status page for this flight to view local times or setup timezone preferences in your user account.

Time Position Orientation Groundspeed Altitude Reporting Facility
EDT Latitude Longitude Course Direction KTS MPH feet Rate Location/Type
Thu 09:12:06 AM 33.8486 -116.5286 342° North 169 194 26,000  Level Los Angeles Center
Thu 09:13:07 AM 33.8942 -116.5686 324° Northwest 219 252 26,000 -9,344 Level Los Angeles Center
Thu 09:14:08 AM 33.9467 -116.5733 356° North 198 228 7,000 -8,281 Descending Los Angeles Center
Thu 09:15:00 AM 34.1571 -116.5310 348° North  Level FlightAware Approximate
Thu 09:15:08 AM 34.0139 -116.5506 16° North 248 285 9,300  Level Los Angeles Center
Thu 09:16:00 AM 34.2459 -116.5813 338° Northwest  Level FlightAware Approximate
Thu 09:16:09 AM 34.0858 -116.5253 16° North 265 305 11,600  Level Los Angeles Center
Thu 09:17:00 AM 34.3431 -116.6039 342° North  Level FlightAware Approximate
Thu 09:17:10 AM 34.1603 -116.5403 351° North 290 334 13,400  Level Los Angeles Center
Thu 09:18:11 AM 34.2392 -116.5725 341° North 299 344 15,500 1,934 Climbing Los Angeles Center
Thu 09:19:11 AM 34.3211 -116.6053 342° North 308 354 17,300 1,537 Climbing Los Angeles Center
Thu 09:20:12 AM 34.3781 -116.6797 313° West 325 374 18,600 1,475 Climbing Los Angeles Center
Thu 09:21:13 AM 34.4036 -116.8108 283° West 335 386 20,300 1,525 Climbing Los Angeles Center
Thu 09:22:14 AM 34.4242 -116.9231 283° West 340 391 21,700 1,279 Climbing Los Angeles Center
Thu 09:23:15 AM 34.4453 -117.0361 283° West 344 396 22,900 1,091 Climbing Los Angeles Center
Thu 09:24:15 AM 34.4675 -117.1533 283° West 354 407 23,900 1,140 Climbing Los Angeles Center
Thu 09:25:16 AM 34.4886 -117.2731 282° West 361 415 25,200 1,033 Climbing Los Angeles Center
Thu 09:26:17 AM 34.5106 -117.3917 283° West 361 415 26,000 393 Climbing Los Angeles Center
Thu 09:27:18 AM 34.5333 -117.5169 282° West 376 433 26,000  Level Los Angeles Center
Thu 09:28:19 AM 34.5575 -117.6497 282° West 398 458 26,000  Level Los Angeles Center
Thu 09:29:20 AM 34.5825 -117.7867 283° West 412 474 26,000  Level Los Angeles Center
Thu 09:30:21 AM 34.6058 -117.9217 282° West 408 470 26,000  Level Los Angeles Center
Thu 09:31:22 AM 34.6314 -118.0564 283° West 410 472 26,000  Level Los Angeles Center
Thu 09:32:23 AM 34.6906 -118.1717 302° West 402 463 26,000  Level Los Angeles Center
Thu 09:33:24 AM 34.7511 -118.2836 303° West 397 457 26,000  Level Los Angeles Center
Thu 09:34:25 AM 34.8108 -118.3975 303° West 397 457 26,000  Level Los Angeles Center
Thu 09:35:27 AM 34.8772 -118.5172 304° West 397 457 26,000  Level Los Angeles Center
Thu 09:36:28 AM 34.9347 -118.6278 302° West 394 453 26,000  Level Los Angeles Center
Thu 09:37:29 AM 34.9892 -118.7442 300° West 398 458 26,000  Level Los Angeles Center
Thu 09:38:30 AM 35.0394 -118.8617 298° West 395 455 26,000  Level Los Angeles Center
Thu 09:39:31 AM 35.1014 -119.0031 298° West 394 453 26,000  Level Los Angeles Center
Thu 09:40:32 AM 35.1511 -119.1225 297° West 396 456 26,000  Level Los Angeles Center
Thu 09:41:34 AM 35.2025 -119.2389 298° West 396 456 26,000  Level Los Angeles Center
Thu 09:42:35 AM 35.2533 -119.3592 297° West 399 459 26,000  Level Los Angeles Center
Thu 09:43:36 AM 35.3031 -119.4781 297° West 396 456 26,000  Level Los Angeles Center
Thu 09:44:37 AM 35.3539 -119.5975 298° West 398 458 26,000  Level Los Angeles Center
Thu 09:45:39 AM 35.4039 -119.7169 297° West 401 461 26,000  Level Los Angeles Center
Thu 09:45:56 AM 35.4219 -119.7631 296° West 397 457 26,000  Level Oakland Center
Thu 09:46:56 AM 35.4725 -119.8833 297° West 400 460 26,000  Level Oakland Center
Thu 09:47:57 AM 35.5222 -120.0033 297° West 400 460 26,000  Level Oakland Center
Thu 09:48:58 AM 35.5719 -120.1217 297° West 397 457 26,000  Level Oakland Center
Thu 09:49:59 AM 35.6197 -120.2408 296° West 396 456 26,000  Level Oakland Center
Thu 09:51:00 AM 35.6678 -120.3586 297° West 393 452 26,000  Level Oakland Center
Thu 09:52:01 AM 35.7272 -120.4667 304° West 393 452 26,000  Level Oakland Center
Thu 09:53:02 AM 35.7961 -120.5664 310° West 385 443 26,000  Level Oakland Center
Thu 09:54:03 AM 35.8800 -120.6858 311° West 386 444 26,000  Level Oakland Center
Thu 09:55:04 AM 35.9489 -120.7856 310° West 385 443 26,000  Level Oakland Center
Thu 09:56:05 AM 36.0181 -120.8853 311° West 384 442 26,000  Level Oakland Center
Thu 09:57:06 AM 36.0869 -120.9856 310° West 384 442 26,000  Level Oakland Center
Thu 09:58:07 AM 36.1558 -121.0869 310° West 387 445 26,000  Level Oakland Center
Thu 09:59:08 AM 36.2244 -121.1875 310° West 384 442 26,000  Level Oakland Center
Thu 10:00:09 AM 36.2936 -121.2894 310° West 388 447 26,000 -148 Level Oakland Center
Thu 10:01:10 AM 36.3622 -121.3925 310° West 388 447 25,700 -885 Descending Oakland Center
Thu 10:02:11 AM 36.4336 -121.4969 310° West 398 458 24,200 -1,475 Descending Oakland Center
Thu 10:03:12 AM 36.5025 -121.6044 309° West 398 458 22,700 -1,586 Descending Oakland Center
Thu 10:03:38 AM 36.5500 -121.6667 314° West 395 455 21,900 -1,814 Descending Northern Cal TRACON
Thu 10:04:38 AM 36.6167 -121.7667 310° West 396 456 20,100 -1,900 Descending Northern Cal TRACON
Thu 10:05:38 AM 36.6833 -121.8667 310° West 395 455 18,100 -1,789 Descending Northern Cal TRACON
Thu 10:06:32 AM 36.7500 -121.9500 315° West 364 419 16,700 -1,850 Descending Northern Cal TRACON
Thu 10:07:38 AM 36.8500 -122.0000 338° Northwest 329 379 14,400 -1,943 Descending Northern Cal TRACON
Thu 10:08:17 AM 36.8869 -122.0008 359° North 330 380 13,300 -1,860 Descending Oakland Center
Thu 10:09:18 AM 36.9728 -122.0244 348° North 317 365 11,300 -1,623 Descending Oakland Center
Thu 10:10:19 AM 37.0533 -122.0436 349° North 296 341 10,000 -639 Descending Oakland Center
Thu 10:11:20 AM 37.1181 -122.0614 348° North 242 278 10,000  Level Oakland Center
Thu 10:12:21 AM 37.1633 -122.1322 309° West 247 284 10,000 -98 Level Oakland Center
Thu 10:13:22 AM 37.1953 -122.2025 300° West 239 275 9,800 -885 Descending Oakland Center
Thu 10:14:23 AM 37.2500 -122.2428 330° Northwest 225 259 8,200 -1,033 Descending Oakland Center
Thu 10:15:24 AM 37.3050 -122.2528 352° North 226 260 7,700 -1,082 Descending Oakland Center
Thu 10:16:25 AM 37.3583 -122.2217 25° Northeast 220 253 6,000 -1,574 Descending Oakland Center
Thu 10:17:26 AM 37.4150 -122.2039 14° North 212 244 4,500 -1,024 Descending Oakland Center
Thu 10:18:28 AM 37.4703 -122.1886 12° North 208 239 3,900 -829 Descending Oakland Center
Thu 10:19:29 AM 37.5258 -122.1867 North 208 239 2,800 -738 Descending Oakland Center
Thu 10:20:30 AM 37.5583 -122.2369 309° West 192 221 2,400 -393 Descending Oakland Center

Login

Don't have an account? Register now (free) for customized features, flight alerts, and more!